sensor_id;sensor_type;location;lat;lon;timestamp;pressure;altitude;pressure_sealevel;temperature;humidity
71976;BME280;68326;52.124;5.424;2024-01-11T00:01:45;103318.72;;;-0.70;57.00
71976;BME280;68326;52.124;5.424;2024-01-11T00:04:13;103321.25;;;-0.72;57.06
71976;BME280;68326;52.124;5.424;2024-01-11T00:06:43;103324.72;;;-0.70;56.95
71976;BME280;68326;52.124;5.424;2024-01-11T00:09:12;103316.00;;;-0.75;56.28
71976;BME280;68326;52.124;5.424;2024-01-11T00:11:39;103317.59;;;-0.78;57.29
71976;BME280;68326;52.124;5.424;2024-01-11T00:14:05;103315.66;;;-0.84;56.96
71976;BME280;68326;52.124;5.424;2024-01-11T00:16:32;103311.34;;;-0.85;56.79
71976;BME280;68326;52.124;5.424;2024-01-11T00:18:59;103323.00;;;-0.93;57.68
71976;BME280;68326;52.124;5.424;2024-01-11T00:21:26;103313.66;;;-0.93;57.59
71976;BME280;68326;52.124;5.424;2024-01-11T00:23:53;103317.75;;;-0.96;57.57
71976;BME280;68326;52.124;5.424;2024-01-11T00:26:19;103320.94;;;-1.02;57.90
71976;BME280;68326;52.124;5.424;2024-01-11T00:28:46;103318.22;;;-1.07;57.58
71976;BME280;68326;52.124;5.424;2024-01-11T00:31:12;103315.63;;;-1.08;58.63
71976;BME280;68326;52.124;5.424;2024-01-11T00:33:39;103316.84;;;-1.21;57.89
71976;BME280;68326;52.124;5.424;2024-01-11T00:36:06;103313.31;;;-1.25;59.00
71976;BME280;68326;52.124;5.424;2024-01-11T00:38:34;103318.34;;;-1.26;58.75
71976;BME280;68326;52.124;5.424;2024-01-11T00:41:01;103319.16;;;-1.27;58.26
71976;BME280;68326;52.124;5.424;2024-01-11T00:43:28;103322.41;;;-1.31;58.61
71976;BME280;68326;52.124;5.424;2024-01-11T00:45:54;103317.34;;;-1.30;58.79
71976;BME280;68326;52.124;5.424;2024-01-11T00:48:21;103316.31;;;-1.35;59.11
71976;BME280;68326;52.124;5.424;2024-01-11T00:50:47;103307.66;;;-1.38;58.97
71976;BME280;68326;52.124;5.424;2024-01-11T00:53:14;103314.63;;;-1.34;60.21
71976;BME280;68326;52.124;5.424;2024-01-11T00:55:41;103305.16;;;-1.37;59.65
71976;BME280;68326;52.124;5.424;2024-01-11T00:58:07;103317.06;;;-1.37;59.69
71976;BME280;68326;52.124;5.424;2024-01-11T01:00:34;103320.38;;;-1.40;59.50
71976;BME280;68326;52.124;5.424;2024-01-11T01:03:01;103317.69;;;-1.43;60.03
71976;BME280;68326;52.124;5.424;2024-01-11T01:05:27;103314.25;;;-1.44;60.22
71976;BME280;68326;52.124;5.424;2024-01-11T01:07:54;103320.16;;;-1.45;59.74
71976;BME280;68326;52.124;5.424;2024-01-11T01:10:21;103316.72;;;-1.47;60.78
71976;BME280;68326;52.124;5.424;2024-01-11T01:12:47;103316.72;;;-1.47;60.56
71976;BME280;68326;52.124;5.424;2024-01-11T01:15:14;103322.44;;;-1.52;60.16
71976;BME280;68326;52.124;5.424;2024-01-11T01:17:41;103328.16;;;-1.58;60.07
71976;BME280;68326;52.124;5.424;2024-01-11T01:20:08;103324.81;;;-1.57;60.31
71976;BME280;68326;52.124;5.424;2024-01-11T01:22:35;103320.50;;;-1.58;61.00
71976;BME280;68326;52.124;5.424;2024-01-11T01:25:02;103327.66;;;-1.49;61.38
71976;BME280;68326;52.124;5.424;2024-01-11T01:27:28;103332.72;;;-1.51;61.30
71976;BME280;68326;52.124;5.424;2024-01-11T01:29:55;103337.56;;;-1.57;61.14
71976;BME280;68326;52.124;5.424;2024-01-11T01:32:21;103339.94;;;-1.61;61.04
71976;BME280;68326;52.124;5.424;2024-01-11T01:34:48;103334.78;;;-1.63;61.29
71976;BME280;68326;52.124;5.424;2024-01-11T01:37:15;103333.09;;;-1.62;61.73
71976;BME280;68326;52.124;5.424;2024-01-11T01:39:41;103338.13;;;-1.64;61.81
71976;BME280;68326;52.124;5.424;2024-01-11T01:42:08;103338.31;;;-1.59;62.09
71976;BME280;68326;52.124;5.424;2024-01-11T01:44:35;103332.03;;;-1.68;61.68
71976;BME280;68326;52.124;5.424;2024-01-11T01:47:02;103343.22;;;-1.64;61.29
71976;BME280;68326;52.124;5.424;2024-01-11T01:49:31;103338.19;;;-1.62;61.18
71976;BME280;68326;52.124;5.424;2024-01-11T01:51:58;103342.25;;;-1.68;61.03
71976;BME280;68326;52.124;5.424;2024-01-11T01:54:25;103345.59;;;-1.69;62.13
71976;BME280;68326;52.124;5.424;2024-01-11T01:56:53;103347.97;;;-1.73;61.17
71976;BME280;68326;52.124;5.424;2024-01-11T01:59:20;103347.16;;;-1.72;61.53
71976;BME280;68326;52.124;5.424;2024-01-11T02:01:48;103345.34;;;-1.75;62.25
71976;BME280;68326;52.124;5.424;2024-01-11T02:04:14;103347.72;;;-1.79;62.40
71976;BME280;68326;52.124;5.424;2024-01-11T02:06:44;103352.63;;;-1.84;61.86
71976;BME280;68326;52.124;5.424;2024-01-11T02:09:11;103351.81;;;-1.83;61.57
71976;BME280;68326;52.124;5.424;2024-01-11T02:11:41;103359.53;;;-1.81;61.75
71976;BME280;68326;52.124;5.424;2024-01-11T02:14:07;103368.13;;;-1.79;62.77
71976;BME280;68326;52.124;5.424;2024-01-11T02:16:35;103365.66;;;-1.78;62.29
71976;BME280;68326;52.124;5.424;2024-01-11T02:19:02;103364.81;;;-1.77;61.66
71976;BME280;68326;52.124;5.424;2024-01-11T02:21:30;103365.56;;;-1.79;62.11
71976;BME280;68326;52.124;5.424;2024-01-11T02:24:05;103359.59;;;-1.80;62.75
71976;BME280;68326;52.124;5.424;2024-01-11T02:26:32;103356.91;;;-1.83;62.28
71976;BME280;68326;52.124;5.424;2024-01-11T02:28:59;103351.63;;;-1.88;63.14
71976;BME280;68326;52.124;5.424;2024-01-11T02:31:26;103356.72;;;-1.88;62.55
71976;BME280;68326;52.124;5.424;2024-01-11T02:33:53;103346.53;;;-1.88;62.65
71976;BME280;68326;52.124;5.424;2024-01-11T02:36:20;103350.75;;;-1.88;63.66
71976;BME280;68326;52.124;5.424;2024-01-11T02:38:48;103347.88;;;-1.96;63.51
71976;BME280;68326;52.124;5.424;2024-01-11T02:41:18;103347.00;;;-1.96;63.50
71976;BME280;68326;52.124;5.424;2024-01-11T02:43:48;103341.72;;;-2.01;62.36
71976;BME280;68326;52.124;5.424;2024-01-11T02:46:16;103348.44;;;-2.03;63.48
71976;BME280;68326;52.124;5.424;2024-01-11T02:48:43;103344.28;;;-2.01;63.13
71976;BME280;68326;52.124;5.424;2024-01-11T02:51:10;103340.78;;;-2.03;63.01
71976;BME280;68326;52.124;5.424;2024-01-11T02:53:36;103336.44;;;-2.06;63.26
71976;BME280;68326;52.124;5.424;2024-01-11T02:56:03;103327.16;;;-2.03;63.86
71976;BME280;68326;52.124;5.424;2024-01-11T02:58:30;103338.78;;;-2.10;62.95
71976;BME280;68326;52.124;5.424;2024-01-11T03:00:57;103333.44;;;-2.16;63.62
71976;BME280;68326;52.124;5.424;2024-01-11T03:03:23;103344.31;;;-2.20;64.04
71976;BME280;68326;52.124;5.424;2024-01-11T03:05:50;103337.50;;;-2.20;63.82
71976;BME280;68326;52.124;5.424;2024-01-11T03:08:17;103341.09;;;-2.16;63.72
71976;BME280;68326;52.124;5.424;2024-01-11T03:10:43;103333.34;;;-2.18;64.35
71976;BME280;68326;52.124;5.424;2024-01-11T03:13:10;103348.28;;;-2.27;64.92
71976;BME280;68326;52.124;5.424;2024-01-11T03:15:36;103348.00;;;-2.33;64.92
71976;BME280;68326;52.124;5.424;2024-01-11T03:18:03;103353.97;;;-2.33;64.70
71976;BME280;68326;52.124;5.424;2024-01-11T03:20:30;103355.03;;;-2.28;64.72
71976;BME280;68326;52.124;5.424;2024-01-11T03:22:57;103358.50;;;-2.26;64.71
71976;BME280;68326;52.124;5.424;2024-01-11T03:25:23;103360.09;;;-2.29;65.05
71976;BME280;68326;52.124;5.424;2024-01-11T03:27:50;103362.38;;;-2.35;65.61
71976;BME280;68326;52.124;5.424;2024-01-11T03:30:16;103354.72;;;-2.35;65.73
71976;BME280;68326;52.124;5.424;2024-01-11T03:32:43;103356.41;;;-2.36;65.40
71976;BME280;68326;52.124;5.424;2024-01-11T03:35:10;103360.59;;;-2.36;65.77
71976;BME280;68326;52.124;5.424;2024-01-11T03:37:37;103363.91;;;-2.39;66.30
71976;BME280;68326;52.124;5.424;2024-01-11T03:40:04;103362.22;;;-2.38;65.68
71976;BME280;68326;52.124;5.424;2024-01-11T03:42:31;103361.34;;;-2.39;66.86
71976;BME280;68326;52.124;5.424;2024-01-11T03:44:57;103359.06;;;-2.33;66.82
71976;BME280;68326;52.124;5.424;2024-01-11T03:47:24;103351.53;;;-2.30;67.08
71976;BME280;68326;52.124;5.424;2024-01-11T03:49:50;103357.66;;;-2.26;66.40
71976;BME280;68326;52.124;5.424;2024-01-11T03:52:17;103356.72;;;-2.28;67.03
71976;BME280;68326;52.124;5.424;2024-01-11T03:54:43;103363.56;;;-2.27;67.31
71976;BME280;68326;52.124;5.424;2024-01-11T03:57:10;103358.31;;;-2.30;66.64
71976;BME280;68326;52.124;5.424;2024-01-11T03:59:36;103367.09;;;-2.23;66.45
71976;BME280;68326;52.124;5.424;2024-01-11T04:02:03;103371.53;;;-2.19;66.72
71976;BME280;68326;52.124;5.424;2024-01-11T04:04:30;103382.75;;;-2.16;67.36
71976;BME280;68326;52.124;5.424;2024-01-11T04:06:57;103372.34;;;-2.20;67.27
71976;BME280;68326;52.124;5.424;2024-01-11T04:09:23;103366.13;;;-2.27;66.96
71976;BME280;68326;52.124;5.424;2024-01-11T04:11:49;103375.38;;;-2.29;66.99
71976;BME280;68326;52.124;5.424;2024-01-11T04:14:16;103383.31;;;-2.23;67.62
71976;BME280;68326;52.124;5.424;2024-01-11T04:16:43;103390.06;;;-2.23;67.36
71976;BME280;68326;52.124;5.424;2024-01-11T04:19:09;103387.94;;;-2.34;67.59
71976;BME280;68326;52.124;5.424;2024-01-11T04:21:36;103389.53;;;-2.36;67.90
71976;BME280;68326;52.124;5.424;2024-01-11T04:24:07;103382.75;;;-2.35;68.96
71976;BME280;68326;52.124;5.424;2024-01-11T04:26:35;103392.97;;;-2.35;68.17
71976;BME280;68326;52.124;5.424;2024-01-11T04:29:01;103405.56;;;-2.38;69.04
71976;BME280;68326;52.124;5.424;2024-01-11T04:31:28;103406.38;;;-2.39;68.25
71976;BME280;68326;52.124;5.424;2024-01-11T04:33:55;103408.25;;;-2.35;68.74
71976;BME280;68326;52.124;5.424;2024-01-11T04:36:21;103405.63;;;-2.37;68.66
71976;BME280;68326;52.124;5.424;2024-01-11T04:38:48;103407.59;;;-2.31;69.51
71976;BME280;68326;52.124;5.424;2024-01-11T04:41:15;103403.81;;;-2.39;68.30
71976;BME280;68326;52.124;5.424;2024-01-11T04:43:43;103401.75;;;-2.48;68.68
71976;BME280;68326;52.124;5.424;2024-01-11T04:46:18;103406.28;;;-2.41;69.51
71976;BME280;68326;52.124;5.424;2024-01-11T04:48:45;103412.25;;;-2.40;68.75
71976;BME280;68326;52.124;5.424;2024-01-11T04:51:13;103405.34;;;-2.43;69.30
71976;BME280;68326;52.124;5.424;2024-01-11T04:53:40;103407.81;;;-2.44;69.07
71976;BME280;68326;52.124;5.424;2024-01-11T04:56:08;103404.56;;;-2.42;69.77
71976;BME280;68326;52.124;5.424;2024-01-11T04:58:35;103412.41;;;-2.37;69.45
71976;BME280;68326;52.124;5.424;2024-01-11T05:01:05;103420.84;;;-2.38;69.90
71976;BME280;68326;52.124;5.424;2024-01-11T05:03:32;103416.56;;;-2.39;68.71
71976;BME280;68326;52.124;5.424;2024-01-11T05:05:59;103407.16;;;-2.40;69.30
71976;BME280;68326;52.124;5.424;2024-01-11T05:08:26;103406.44;;;-2.38;69.80
71976;BME280;68326;52.124;5.424;2024-01-11T05:10:53;103403.00;;;-2.38;69.90
71976;BME280;68326;52.124;5.424;2024-01-11T05:13:20;103397.03;;;-2.39;69.98
71976;BME280;68326;52.124;5.424;2024-01-11T05:15:46;103402.28;;;-2.36;70.20
71976;BME280;68326;52.124;5.424;2024-01-11T05:18:13;103411.13;;;-2.28;70.06
71976;BME280;68326;52.124;5.424;2024-01-11T05:20:40;103412.72;;;-2.30;69.08
71976;BME280;68326;52.124;5.424;2024-01-11T05:23:07;103405.03;;;-2.31;68.90
71976;BME280;68326;52.124;5.424;2024-01-11T05:25:34;103400.81;;;-2.31;69.01
71976;BME280;68326;52.124;5.424;2024-01-11T05:28:02;103396.72;;;-2.27;69.17
71976;BME280;68326;52.124;5.424;2024-01-11T05:30:29;103383.75;;;-2.32;68.98
71976;BME280;68326;52.124;5.424;2024-01-11T05:32:56;103380.13;;;-2.37;69.82
71976;BME280;68326;52.124;5.424;2024-01-11T05:35:23;103371.69;;;-2.36;69.90
71976;BME280;68326;52.124;5.424;2024-01-11T05:37:50;103374.47;;;-2.30;69.81
71976;BME280;68326;52.124;5.424;2024-01-11T05:40:17;103371.00;;;-2.32;69.26
71976;BME280;68326;52.124;5.424;2024-01-11T05:42:43;103377.84;;;-2.31;69.56
71976;BME280;68326;52.124;5.424;2024-01-11T05:45:09;103389.84;;;-2.28;70.29
71976;BME280;68326;52.124;5.424;2024-01-11T05:47:36;103388.41;;;-2.23;70.18
71976;BME280;68326;52.124;5.424;2024-01-11T05:50:04;103385.44;;;-2.32;69.84
71976;BME280;68326;52.124;5.424;2024-01-11T05:52:31;103373.34;;;-2.36;68.99
71976;BME280;68326;52.124;5.424;2024-01-11T05:54:58;103391.94;;;-2.39;68.85
71976;BME280;68326;52.124;5.424;2024-01-11T05:57:24;103399.59;;;-2.39;69.76
71976;BME280;68326;52.124;5.424;2024-01-11T05:59:51;103403.81;;;-2.39;69.07
71976;BME280;68326;52.124;5.424;2024-01-11T06:02:17;103397.97;;;-2.37;69.61
71976;BME280;68326;52.124;5.424;2024-01-11T06:04:44;103406.28;;;-2.41;69.87
71976;BME280;68326;52.124;5.424;2024-01-11T06:07:14;103406.22;;;-2.42;69.10
71976;BME280;68326;52.124;5.424;2024-01-11T06:09:40;103414.41;;;-2.50;69.51
71976;BME280;68326;52.124;5.424;2024-01-11T06:12:07;103422.25;;;-2.45;70.01
71976;BME280;68326;52.124;5.424;2024-01-11T06:14:35;103418.63;;;-2.50;70.34
71976;BME280;68326;52.124;5.424;2024-01-11T06:17:02;103434.88;;;-2.48;69.74
71976;BME280;68326;52.124;5.424;2024-01-11T06:19:28;103439.31;;;-2.44;69.75
71976;BME280;68326;52.124;5.424;2024-01-11T06:21:55;103453.59;;;-2.48;70.44
71976;BME280;68326;52.124;5.424;2024-01-11T06:24:21;103471.56;;;-2.44;69.22
71976;BME280;68326;52.124;5.424;2024-01-11T06:26:48;103473.31;;;-2.43;69.24
71976;BME280;68326;52.124;5.424;2024-01-11T06:29:14;103476.00;;;-2.40;70.43
71976;BME280;68326;52.124;5.424;2024-01-11T06:31:41;103483.72;;;-2.39;69.71
71976;BME280;68326;52.124;5.424;2024-01-11T06:34:08;103476.22;;;-2.36;70.33
71976;BME280;68326;52.124;5.424;2024-01-11T06:36:34;103475.41;;;-2.35;69.99
71976;BME280;68326;52.124;5.424;2024-01-11T06:39:01;103492.19;;;-2.40;69.70
71976;BME280;68326;52.124;5.424;2024-01-11T06:41:27;103494.59;;;-2.43;69.92
71976;BME280;68326;52.124;5.424;2024-01-11T06:43:54;103495.84;;;-2.53;70.52
71976;BME280;68326;52.124;5.424;2024-01-11T06:46:23;103488.34;;;-2.50;70.42
71976;BME280;68326;52.124;5.424;2024-01-11T06:48:50;103487.47;;;-2.50;70.36
71976;BME280;68326;52.124;5.424;2024-01-11T06:51:20;103493.44;;;-2.50;69.90
71976;BME280;68326;52.124;5.424;2024-01-11T06:53:47;103482.38;;;-2.50;70.51
71976;BME280;68326;52.124;5.424;2024-01-11T06:56:18;103497.66;;;-2.50;70.03
71976;BME280;68326;52.124;5.424;2024-01-11T06:58:46;103502.09;;;-2.46;70.00
71976;BME280;68326;52.124;5.424;2024-01-11T07:01:13;103508.84;;;-2.47;69.80
71976;BME280;68326;52.124;5.424;2024-01-11T07:03:40;103509.75;;;-2.46;69.82
71976;BME280;68326;52.124;5.424;2024-01-11T07:06:06;103499.69;;;-2.43;70.13
71976;BME280;68326;52.124;5.424;2024-01-11T07:08:33;103505.44;;;-2.47;70.82
71976;BME280;68326;52.124;5.424;2024-01-11T07:11:01;103496.25;;;-2.43;70.03
71976;BME280;68326;52.124;5.424;2024-01-11T07:13:31;103498.81;;;-2.43;70.06
71976;BME280;68326;52.124;5.424;2024-01-11T07:15:58;103489.28;;;-2.48;70.14
71976;BME280;68326;52.124;5.424;2024-01-11T07:18:25;103487.69;;;-2.46;70.15
71976;BME280;68326;52.124;5.424;2024-01-11T07:20:52;103478.63;;;-2.39;70.50
71976;BME280;68326;52.124;5.424;2024-01-11T07:23:19;103472.66;;;-2.39;69.93
71976;BME280;68326;52.124;5.424;2024-01-11T07:25:46;103467.69;;;-2.36;69.82
71976;BME280;68326;52.124;5.424;2024-01-11T07:28:13;103471.34;;;-2.31;70.60
71976;BME280;68326;52.124;5.424;2024-01-11T07:30:39;103459.38;;;-2.32;69.85
71976;BME280;68326;52.124;5.424;2024-01-11T07:33:06;103457.78;;;-2.30;69.88
71976;BME280;68326;52.124;5.424;2024-01-11T07:35:35;103458.63;;;-2.30;70.29
71976;BME280;68326;52.124;5.424;2024-01-11T07:38:01;103462.75;;;-2.33;70.32
71976;BME280;68326;52.124;5.424;2024-01-11T07:40:29;103475.63;;;-2.30;70.07
71976;BME280;68326;52.124;5.424;2024-01-11T07:42:58;103477.72;;;-2.21;70.98
71976;BME280;68326;52.124;5.424;2024-01-11T07:45:25;103473.56;;;-2.19;70.79
71976;BME280;68326;52.124;5.424;2024-01-11T07:47:51;103469.06;;;-2.25;69.83
71976;BME280;68326;52.124;5.424;2024-01-11T07:50:18;103463.81;;;-2.28;70.01
71976;BME280;68326;52.124;5.424;2024-01-11T07:52:45;103467.19;;;-2.29;70.36
71976;BME280;68326;52.124;5.424;2024-01-11T07:55:12;103464.09;;;-2.22;71.23
71976;BME280;68326;52.124;5.424;2024-01-11T07:57:40;103465.16;;;-2.17;70.72
71976;BME280;68326;52.124;5.424;2024-01-11T08:00:07;103466.19;;;-2.13;70.99
71976;BME280;68326;52.124;5.424;2024-01-11T08:02:34;103481.84;;;-2.06;70.61
71976;BME280;68326;52.124;5.424;2024-01-11T08:05:01;103487.13;;;-2.01;70.75
71976;BME280;68326;52.124;5.424;2024-01-11T08:07:27;103466.53;;;-2.06;70.28
71976;BME280;68326;52.124;5.424;2024-01-11T08:09:54;103470.22;;;-1.99;70.92
71976;BME280;68326;52.124;5.424;2024-01-11T08:12:21;103466.25;;;-1.92;70.45
71976;BME280;68326;52.124;5.424;2024-01-11T08:14:48;103469.00;;;-1.88;70.64
71976;BME280;68326;52.124;5.424;2024-01-11T08:17:15;103475.38;;;-1.78;70.39
71976;BME280;68326;52.124;5.424;2024-01-11T08:19:42;103464.56;;;-1.72;70.21
71976;BME280;68326;52.124;5.424;2024-01-11T08:22:09;103470.47;;;-1.73;70.94
71976;BME280;68326;52.124;5.424;2024-01-11T08:24:37;103466.56;;;-1.65;71.01
71976;BME280;68326;52.124;5.424;2024-01-11T08:27:04;103458.25;;;-1.61;70.01
71976;BME280;68326;52.124;5.424;2024-01-11T08:29:32;103465.22;;;-1.57;69.91
71976;BME280;68326;52.124;5.424;2024-01-11T08:32:00;103479.88;;;-1.53;70.72
71976;BME280;68326;52.124;5.424;2024-01-11T08:34:49;103488.41;;;-1.52;70.32
71976;BME280;68326;52.124;5.424;2024-01-11T08:37:16;103487.78;;;-1.47;69.98
71976;BME280;68326;52.124;5.424;2024-01-11T08:39:42;103489.03;;;-1.37;69.93
71976;BME280;68326;52.124;5.424;2024-01-11T08:42:09;103493.72;;;-1.27;70.38
71976;BME280;68326;52.124;5.424;2024-01-11T08:44:36;103494.78;;;-1.21;69.25
71976;BME280;68326;52.124;5.424;2024-01-11T08:47:03;103496.78;;;-1.14;69.87
71976;BME280;68326;52.124;5.424;2024-01-11T08:49:30;103511.56;;;-1.07;69.96
71976;BME280;68326;52.124;5.424;2024-01-11T08:51:56;103518.78;;;-0.97;69.66
71976;BME280;68326;52.124;5.424;2024-01-11T08:54:23;103520.09;;;-0.86;68.81
71976;BME280;68326;52.124;5.424;2024-01-11T08:56:49;103517.91;;;-0.76;69.40
71976;BME280;68326;52.124;5.424;2024-01-11T08:59:16;103532.16;;;-0.60;69.39
71976;BME280;68326;52.124;5.424;2024-01-11T09:01:43;103539.38;;;-0.50;68.07
71976;BME280;68326;52.124;5.424;2024-01-11T09:04:22;103543.91;;;-0.43;67.73
71976;BME280;68326;52.124;5.424;2024-01-11T09:06:49;103542.53;;;-0.35;67.37
71976;BME280;68326;52.124;5.424;2024-01-11T09:09:16;103549.41;;;-0.34;67.20
71976;BME280;68326;52.124;5.424;2024-01-11T09:11:43;103548.06;;;-0.24;66.99
71976;BME280;68326;52.124;5.424;2024-01-11T09:14:10;103554.50;;;-0.11;66.12
71976;BME280;68326;52.124;5.424;2024-01-11T09:16:37;103550.25;;;-0.11;66.29
71976;BME280;68326;52.124;5.424;2024-01-11T09:19:06;103548.88;;;-0.03;66.37
71976;BME280;68326;52.124;5.424;2024-01-11T09:21:33;103549.69;;;-0.04;66.96
71976;BME280;68326;52.124;5.424;2024-01-11T09:23:59;103547.41;;;0.04;66.89
71976;BME280;68326;52.124;5.424;2024-01-11T09:26:26;103557.00;;;0.10;66.17
71976;BME280;68326;52.124;5.424;2024-01-11T09:28:52;103560.56;;;0.13;66.65
71976;BME280;68326;52.124;5.424;2024-01-11T09:31:19;103551.03;;;0.09;68.56
71976;BME280;68326;52.124;5.424;2024-01-11T09:33:45;103556.94;;;0.08;68.18
71976;BME280;68326;52.124;5.424;2024-01-11T09:36:13;103556.94;;;0.08;68.58
71976;BME280;68326;52.124;5.424;2024-01-11T09:38:39;103555.69;;;0.21;69.40
71976;BME280;68326;52.124;5.424;2024-01-11T09:41:08;103555.00;;;0.25;70.71
71976;BME280;68326;52.124;5.424;2024-01-11T09:43:40;103566.25;;;0.29;70.40
71976;BME280;68326;52.124;5.424;2024-01-11T09:46:07;103563.75;;;0.30;70.70
71976;BME280;68326;52.124;5.424;2024-01-11T09:48:37;103562.91;;;0.31;70.96
71976;BME280;68326;52.124;5.424;2024-01-11T09:51:08;103566.53;;;0.36;72.25
71976;BME280;68326;52.124;5.424;2024-01-11T09:53:37;103568.31;;;0.39;71.79
71976;BME280;68326;52.124;5.424;2024-01-11T09:56:07;103571.97;;;0.46;73.18
71976;BME280;68326;52.124;5.424;2024-01-11T09:58:36;103565.97;;;0.45;72.54
71976;BME280;68326;52.124;5.424;2024-01-11T10:01:07;103558.22;;;0.44;72.61
71976;BME280;68326;52.124;5.424;2024-01-11T10:03:35;103567.56;;;0.42;73.95
71976;BME280;68326;52.124;5.424;2024-01-11T10:06:02;103575.31;;;0.43;73.89
71976;BME280;68326;52.124;5.424;2024-01-11T10:08:29;103576.38;;;0.50;73.46
71976;BME280;68326;52.124;5.424;2024-01-11T10:10:56;103570.72;;;0.58;74.66
71976;BME280;68326;52.124;5.424;2024-01-11T10:13:28;103572.56;;;0.63;74.98
71976;BME280;68326;52.124;5.424;2024-01-11T10:16:08;103578.72;;;0.68;73.95
71976;BME280;68326;52.124;5.424;2024-01-11T10:18:36;103581.41;;;0.71;74.97
71976;BME280;68326;52.124;5.424;2024-01-11T10:21:03;103582.31;;;0.73;75.36
71976;BME280;68326;52.124;5.424;2024-01-11T10:23:33;103580.53;;;0.70;75.26
71976;BME280;68326;52.124;5.424;2024-01-11T10:25:59;103577.34;;;0.77;75.70
71976;BME280;68326;52.124;5.424;2024-01-11T10:28:26;103575.06;;;0.85;75.06
71976;BME280;68326;52.124;5.424;2024-01-11T10:30:53;103569.97;;;0.87;75.45
71976;BME280;68326;52.124;5.424;2024-01-11T10:33:21;103571.75;;;0.89;75.51
71976;BME280;68326;52.124;5.424;2024-01-11T10:35:49;103579.63;;;0.94;74.61
71976;BME280;68326;52.124;5.424;2024-01-11T10:38:16;103578.03;;;0.97;75.75
71976;BME280;68326;52.124;5.424;2024-01-11T10:40:44;103574.72;;;1.00;75.55
71976;BME280;68326;52.124;5.424;2024-01-11T10:43:11;103574.81;;;1.03;74.92
71976;BME280;68326;52.124;5.424;2024-01-11T10:45:38;103575.81;;;1.08;76.05
71976;BME280;68326;52.124;5.424;2024-01-11T10:48:15;103571.78;;;1.15;75.78
71976;BME280;68326;52.124;5.424;2024-01-11T10:50:44;103582.19;;;1.19;75.44
71976;BME280;68326;52.124;5.424;2024-01-11T10:56:09;103589.41;;;1.31;76.58
71976;BME280;68326;52.124;5.424;2024-01-11T10:58:42;103581.03;;;1.37;76.59
71976;BME280;68326;52.124;5.424;2024-01-11T11:01:10;103575.91;;;1.37;77.05
71976;BME280;68326;52.124;5.424;2024-01-11T11:03:38;103587.19;;;1.42;76.08
71976;BME280;68326;52.124;5.424;2024-01-11T11:06:07;103595.94;;;1.49;77.07
71976;BME280;68326;52.124;5.424;2024-01-11T11:08:34;103585.94;;;1.56;76.64
71976;BME280;68326;52.124;5.424;2024-01-11T11:11:02;103593.88;;;1.64;76.57
71976;BME280;68326;52.124;5.424;2024-01-11T11:13:33;103592.25;;;1.68;77.27
71976;BME280;68326;52.124;5.424;2024-01-11T11:16:03;103597.31;;;1.65;77.19
71976;BME280;68326;52.124;5.424;2024-01-11T11:18:31;103600.78;;;1.67;77.29
71976;BME280;68326;52.124;5.424;2024-01-11T11:21:00;103594.22;;;1.75;76.69
71976;BME280;68326;52.124;5.424;2024-01-11T11:23:26;103600.28;;;1.78;76.80
71976;BME280;68326;52.124;5.424;2024-01-11T11:25:54;103596.97;;;1.81;77.13
71976;BME280;68326;52.124;5.424;2024-01-11T11:28:23;103594.53;;;1.86;77.30
71976;BME280;68326;52.124;5.424;2024-01-11T11:30:52;103587.97;;;1.95;77.58
71976;BME280;68326;52.124;5.424;2024-01-11T11:33:23;103585.44;;;1.97;77.07
71976;BME280;68326;52.124;5.424;2024-01-11T11:35:56;103588.06;;;1.98;77.66
71976;BME280;68326;52.124;5.424;2024-01-11T11:38:26;103586.59;;;2.07;76.55
71976;BME280;68326;52.124;5.424;2024-01-11T11:40:55;103575.72;;;2.15;77.71
71976;BME280;68326;52.124;5.424;2024-01-11T11:43:22;103567.16;;;2.16;77.07
71976;BME280;68326;52.124;5.424;2024-01-11T11:45:50;103568.88;;;2.16;76.83
71976;BME280;68326;52.124;5.424;2024-01-11T11:51:08;103568.28;;;2.24;76.35
71976;BME280;68326;52.124;5.424;2024-01-11T11:53:36;103563.44;;;2.35;77.73
71976;BME280;68326;52.124;5.424;2024-01-11T11:56:04;103567.13;;;2.45;76.80
71976;BME280;68326;52.124;5.424;2024-01-11T11:58:32;103558.69;;;2.49;77.14
71976;BME280;68326;52.124;5.424;2024-01-11T12:01:00;103555.25;;;2.50;76.13
71976;BME280;68326;52.124;5.424;2024-01-11T12:03:31;103551.22;;;2.58;76.16
71976;BME280;68326;52.124;5.424;2024-01-11T12:05:59;103540.25;;;2.65;76.79
71976;BME280;68326;52.124;5.424;2024-01-11T12:08:26;103529.06;;;2.63;75.79
71976;BME280;68326;52.124;5.424;2024-01-11T12:10:54;103514.53;;;2.65;76.53
71976;BME280;68326;52.124;5.424;2024-01-11T12:13:21;103515.59;;;2.72;75.91
71976;BME280;68326;52.124;5.424;2024-01-11T12:15:48;103507.00;;;2.72;75.38
71976;BME280;68326;52.124;5.424;2024-01-11T12:18:14;103501.78;;;2.69;76.14
71976;BME280;68326;52.124;5.424;2024-01-11T12:20:41;103496.69;;;2.70;75.69
71976;BME280;68326;52.124;5.424;2024-01-11T12:23:08;103502.88;;;2.78;76.46
71976;BME280;68326;52.124;5.424;2024-01-11T12:25:36;103491.97;;;2.87;76.05
71976;BME280;68326;52.124;5.424;2024-01-11T12:28:03;103493.66;;;2.86;76.04
71976;BME280;68326;52.124;5.424;2024-01-11T12:30:29;103491.91;;;2.85;75.75
71976;BME280;68326;52.124;5.424;2024-01-11T12:32:56;103502.25;;;2.87;76.07
71976;BME280;68326;52.124;5.424;2024-01-11T12:35:24;103498.03;;;2.91;75.66
71976;BME280;68326;52.124;5.424;2024-01-11T12:37:54;103502.41;;;2.95;75.80
71976;BME280;68326;52.124;5.424;2024-01-11T12:40:21;103494.78;;;2.98;75.80
71976;BME280;68326;52.124;5.424;2024-01-11T12:42:48;103494.75;;;2.96;75.14
71976;BME280;68326;52.124;5.424;2024-01-11T12:45:16;103484.47;;;2.96;76.44
71976;BME280;68326;52.124;5.424;2024-01-11T12:47:43;103488.75;;;2.97;75.55
71976;BME280;68326;52.124;5.424;2024-01-11T12:50:11;103492.19;;;2.96;75.77
71976;BME280;68326;52.124;5.424;2024-01-11T12:52:41;103482.84;;;3.01;75.07
71976;BME280;68326;52.124;5.424;2024-01-11T12:55:17;103471.75;;;3.02;75.54
71976;BME280;68326;52.124;5.424;2024-01-11T12:57:44;103468.28;;;3.00;76.33
71976;BME280;68326;52.124;5.424;2024-01-11T13:00:12;103471.91;;;3.09;75.49